Time;durP1;ratioP1;P1;durP2;ratioP2;P2;SDS_P1;SDS_P2;PMS_P1;PMS_P2;Temp;Humidity;BMP_temperature;BMP_pressure;BME280_temperature;BME280_humidity;BME280_pressure;Samples;Min_cycle;Max_cycle;Signal;HPM_P1;HPM_P2
2021/04/01 05:30:50;;;;;;;;;;;;;;;12.34;54.64;99571.27;1688660;83;20315;-64
2021/04/01 05:33:19;;;;;;;;;;;;;;;12.47;54.03;99571.53;1690527;85;20228;-63
2021/04/01 05:35:46;;;;;;;;;;;;;;;12.51;53.65;99566.56;1690543;85;20503;-63
2021/04/01 05:38:15;;;;;;;;;;;;;;;12.50;53.86;99568.78;1690618;85;20227;-64
2021/04/01 05:40:42;;;;;;;;;;;;;;;12.53;53.62;99567.34;1690448;85;21220;-63
2021/04/01 05:43:19;;;;;;;;;;;;;;;12.55;53.58;99562.89;1690531;85;20306;-63
2021/04/01 05:45:49;;;;;;;;;;;;;;;12.57;53.65;99559.30;1690116;84;20227;-63
2021/04/01 05:48:17;;;;;;;;;;;;;;;12.61;53.56;99557.36;1689968;84;21236;-64
2021/04/01 05:59:15;;;;;;;;;;;;;;;12.63;53.71;99550.30;1648512;84;20228;-64
2021/04/01 06:01:47;;;;;;;;;;;;;;;12.66;53.92;99547.09;1691561;84;20492;-63
2021/04/01 06:04:31;;;;;;;;;;;;;;;12.76;54.06;99543.59;1690263;84;20885;-62
2021/04/01 06:07:11;;;;;;;;;;;;;;;12.84;54.49;99544.03;1690509;85;21226;-63
2021/04/01 06:09:35;;;;;;;;;;;;;;;12.90;54.61;99534.61;1689477;84;20219;-64
2021/04/01 06:12:04;;;;;;;;;;;;;;;12.91;55.05;99537.59;1689817;85;20228;-63
2021/04/01 06:14:44;;;;;;;;;;;;;;;12.96;55.28;99537.38;1690651;85;20720;-63
2021/04/01 06:17:11;;;;;;;;;;;;;;;13.04;55.60;99529.98;1690647;85;20290;-63
2021/04/01 06:19:42;;;;;;;;;;;;;;;13.08;55.91;99531.06;1647478;85;21168;-63
2021/04/01 06:22:09;;;;;;;;;;;;;;;13.16;56.03;99526.80;1690479;85;20240;-64
2021/04/01 06:24:39;;;;;;;;;;;;;;;13.21;56.39;99525.23;1690551;85;20298;-64
2021/04/01 06:27:21;;;;;;;;;;;;;;;13.22;56.67;99525.62;1690591;84;20224;-62
2021/04/01 06:32:43;;;;;;;;;;;;;;;13.33;57.53;99516.33;1692429;84;22335;-62
2021/04/01 06:35:21;;;;;;;;;;;;;;;13.48;57.88;99517.75;1693325;84;20269;-63
2021/04/01 06:40:14;;;;;;;;;;;;;;;13.63;58.56;99511.70;1693267;84;20227;-63
2021/04/01 06:42:45;;;;;;;;;;;;;;;13.70;58.75;99508.70;1669355;83;20298;-66
2021/04/01 06:45:13;;;;;;;;;;;;;;;13.79;58.99;99509.49;1654185;85;21230;-64
2021/04/01 06:47:41;;;;;;;;;;;;;;;13.91;59.12;99509.77;1654320;85;20298;-68
2021/04/01 06:50:19;;;;;;;;;;;;;;;14.01;59.30;99514.87;1654285;86;20307;-67
2021/04/01 06:53:00;;;;;;;;;;;;;;;14.12;59.22;99509.44;1628537;86;20307;-65
2021/04/01 06:55:32;;;;;;;;;;;;;;;14.21;59.00;99508.06;1653225;85;20275;-65
2021/04/01 06:58:17;;;;;;;;;;;;;;;14.26;59.05;99503.44;1626945;85;22833;-65
2021/04/01 07:03:39;;;;;;;;;;;;;;;14.36;58.75;99505.09;1654263;86;20299;-67
2021/04/01 07:06:16;;;;;;;;;;;;;;;14.39;58.83;99500.96;1654397;85;20267;-65
2021/04/01 07:08:55;;;;;;;;;;;;;;;14.50;58.76;99500.40;1654246;86;20391;-67
2021/04/01 07:11:31;;;;;;;;;;;;;;;14.58;58.84;99499.51;1653637;85;20586;-66
2021/04/01 07:13:56;;;;;;;;;;;;;;;14.68;58.84;99492.80;1654114;85;20309;-66
2021/04/01 07:16:37;;;;;;;;;;;;;;;14.79;59.02;99493.84;1654293;85;20311;-66
2021/04/01 07:44:52;;;;;;;;;;;;;;;15.39;56.91;99466.23;1648380;85;20970;-66
2021/04/01 07:51:58;;;;;;;;;;;;;;;15.50;56.37;99455.11;1648255;87;20289;-65
2021/04/01 07:54:14;;;;;;;;;;;;;;;15.44;56.31;99457.63;1648603;86;21390;-65
2021/04/01 07:56:47;;;;;;;;;;;;;;;15.42;56.09;99454.26;1648936;87;20305;-65
2021/04/01 08:02:21;;;;;;;;;;;;;;;15.41;56.33;99452.58;1649177;87;21538;-66
2021/04/01 08:04:32;;;;;;;;;;;;;;;15.49;56.46;99451.64;1649035;86;20289;-65
2021/04/01 08:07:12;;;;;;;;;;;;;;;15.63;56.12;99449.97;1648800;86;21391;-64
2021/04/01 08:09:43;;;;;;;;;;;;;;;15.72;55.81;99451.56;1649432;86;20289;-66
2021/04/01 08:12:18;;;;;;;;;;;;;;;15.79;55.13;99444.97;1649583;85;20556;-66
2021/04/01 08:14:50;;;;;;;;;;;;;;;15.84;55.37;99440.28;1651683;85;20502;-64
2021/04/01 08:17:20;;;;;;;;;;;;;;;15.96;55.08;99430.81;1649299;85;20334;-65
2021/04/01 08:19:50;;;;;;;;;;;;;;;16.10;54.75;99431.22;1649385;85;23482;-64
2021/04/01 08:22:21;;;;;;;;;;;;;;;16.23;53.96;99430.78;1649618;86;20304;-68
2021/04/01 08:24:59;;;;;;;;;;;;;;;16.28;53.50;99423.47;1648901;86;20285;-66
2021/04/01 08:27:34;;;;;;;;;;;;;;;16.32;53.57;99427.58;1646171;85;20269;-66
2021/04/01 08:38:35;;;;;;;;;;;;;;;16.67;51.58;99420.48;1662171;85;20250;-64
2021/04/01 08:41:08;;;;;;;;;;;;;;;16.73;50.69;99414.36;1664896;85;20225;-64
2021/04/01 08:43:54;;;;;;;;;;;;;;;16.81;50.96;99415.97;1665411;85;20509;-63
2021/04/01 08:46:32;;;;;;;;;;;;;;;16.95;50.70;99413.73;1665434;85;21208;-63
2021/04/01 08:49:24;;;;;;;;;;;;;;;17.14;50.23;99408.05;1661820;85;20227;-64
2021/04/01 08:52:02;;;;;;;;;;;;;;;17.26;49.85;99402.41;1623803;88;20317;-65
2021/04/01 08:54:46;;;;;;;;;;;;;;;17.36;49.52;99400.83;1623480;88;20610;-65
2021/04/01 08:57:26;;;;;;;;;;;;;;;17.45;49.55;99395.75;1647899;85;21564;-64
2021/04/01 09:00:03;;;;;;;;;;;;;;;17.62;48.89;99391.91;1661793;86;20784;-64
2021/04/01 09:02:33;;;;;;;;;;;;;;;17.73;48.02;99390.72;1672711;85;20292;-63
2021/04/01 09:05:00;;;;;;;;;;;;;;;17.79;48.25;99385.47;1672941;85;20218;-63
2021/04/01 09:07:31;;;;;;;;;;;;;;;17.90;47.26;99375.86;1654022;86;20234;-64
2021/04/01 09:10:03;;;;;;;;;;;;;;;17.95;47.06;99375.53;1668504;86;20227;-63
2021/04/01 09:12:37;;;;;;;;;;;;;;;18.02;47.19;99377.22;1672009;86;21214;-64
2021/04/01 09:15:08;;;;;;;;;;;;;;;18.08;46.90;99382.03;1671950;85;20286;-65
2021/04/01 09:17:36;;;;;;;;;;;;;;;18.06;46.69;99372.09;1672690;86;20227;-64
2021/04/01 09:20:17;;;;;;;;;;;;;;;18.03;47.19;99369.20;1673168;86;20267;-63
2021/04/01 09:22:46;;;;;;;;;;;;;;;18.14;46.74;99364.48;1673196;85;20230;-63
2021/04/01 09:25:13;;;;;;;;;;;;;;;18.14;46.60;99355.27;1673267;86;22274;-63
2021/04/01 09:27:45;;;;;;;;;;;;;;;18.19;46.52;99357.06;1673098;85;20269;-63
2021/04/01 09:30:14;;;;;;;;;;;;;;;18.23;46.55;99349.30;1673209;86;20230;-63
2021/04/01 09:32:46;;;;;;;;;;;;;;;18.34;46.33;99356.42;1672325;85;21258;-63
2021/04/01 09:35:13;;;;;;;;;;;;;;;18.44;45.98;99350.33;1670867;86;20227;-63
2021/04/01 09:37:58;;;;;;;;;;;;;;;18.53;45.99;99348.33;1670971;86;21206;-63
2021/04/01 09:40:34;;;;;;;;;;;;;;;18.55;45.52;99350.84;1670930;85;20276;-63
2021/04/01 09:43:18;;;;;;;;;;;;;;;18.44;45.45;99349.02;1670867;85;20286;-65
2021/04/01 09:45:47;;;;;;;;;;;;;;;18.38;45.49;99340.28;1663189;84;20226;-63
2021/04/01 09:48:16;;;;;;;;;;;;;;;18.31;45.69;99338.21;1671025;85;20251;-62
2021/04/01 09:50:45;;;;;;;;;;;;;;;18.60;47.07;99336.86;1671062;86;22206;-63
2021/04/01 09:53:18;;;;;;;;;;;;;;;18.53;46.63;99331.20;1671012;86;20499;-63
2021/04/01 09:55:47;;;;;;;;;;;;;;;18.56;46.26;99326.19;1671025;85;20227;-64
2021/04/01 09:58:24;;;;;;;;;;;;;;;18.66;46.79;99328.97;1670976;85;20510;-63
2021/04/01 10:03:36;;;;;;;;;;;;;;;19.20;45.87;99318.06;1670983;85;21451;-62
2021/04/01 10:06:03;;;;;;;;;;;;;;;19.40;45.45;99322.23;1670929;86;20234;-63
2021/04/01 10:08:36;;;;;;;;;;;;;;;19.57;44.81;99309.42;1670931;85;20286;-63
2021/04/01 10:11:11;;;;;;;;;;;;;;;19.72;44.45;99309.13;1670959;85;20222;-63
2021/04/01 10:13:38;;;;;;;;;;;;;;;19.79;43.53;99304.52;1670998;86;20314;-63
2021/04/01 10:16:09;;;;;;;;;;;;;;;19.74;44.34;99305.88;1670982;85;22005;-63
2021/04/01 10:18:38;;;;;;;;;;;;;;;19.75;44.35;99305.77;1692010;84;20551;-65
2021/04/01 10:21:09;;;;;;;;;;;;;;;19.80;44.12;99297.44;1646514;84;20705;-65
2021/04/01 10:23:48;;;;;;;;;;;;;;;19.82;44.09;99298.16;1686957;85;20255;-65
2021/04/01 10:26:16;;;;;;;;;;;;;;;19.83;44.33;99295.88;1655706;86;20234;-70
2021/04/01 10:28:57;;;;;;;;;;;;;;;19.78;44.27;99294.96;1686045;85;21301;-63
2021/04/01 10:31:23;;;;;;;;;;;;;;;19.73;44.02;99292.33;1687738;84;20271;-71
2021/04/01 10:34:30;;;;;;;;;;;;;;;19.63;44.61;99288.27;1686024;84;20304;-63
2021/04/01 10:36:59;;;;;;;;;;;;;;;19.65;44.68;99285.03;1610499;87;20287;-64
2021/04/01 10:39:33;;;;;;;;;;;;;;;19.79;44.47;99276.81;1623802;88;20307;-65
2021/04/01 10:42:01;;;;;;;;;;;;;;;19.81;43.71;99269.61;1631052;88;21289;-65
2021/04/01 10:44:28;;;;;;;;;;;;;;;19.71;44.12;99264.75;1630980;87;20251;-63
2021/04/01 10:46:57;;;;;;;;;;;;;;;19.72;44.08;99262.47;1628162;87;20506;-65
2021/04/01 10:49:36;;;;;;;;;;;;;;;19.71;43.80;99260.80;1655272;86;21006;-66
2021/04/01 10:52:10;;;;;;;;;;;;;;;19.62;44.06;99264.17;1663328;86;20881;-64
2021/04/01 10:54:41;;;;;;;;;;;;;;;19.48;44.79;99254.72;1664576;86;20291;-64
2021/04/01 10:57:13;;;;;;;;;;;;;;;19.39;45.00;99248.02;1664255;86;20620;-63
2021/04/01 10:59:50;;;;;;;;;;;;;;;19.38;44.72;99246.37;1654243;86;20330;-65
2021/04/01 11:02:24;;;;;;;;;;;;;;;19.44;44.67;99244.54;1633545;86;20311;-64
2021/04/01 11:04:56;;;;;;;;;;;;;;;19.50;44.61;99238.33;1628725;88;20277;-63
2021/04/01 11:07:26;;;;;;;;;;;;;;;19.61;44.42;99232.16;1628337;88;21479;-66
2021/04/01 11:09:53;;;;;;;;;;;;;;;19.73;43.87;99235.59;1628905;88;20292;-65
2021/04/01 11:12:39;;;;;;;;;;;;;;;19.80;43.72;99229.66;1628743;88;20580;-65
2021/04/01 11:15:08;;;;;;;;;;;;;;;19.82;43.56;99226.91;1628583;88;20366;-65
2021/04/01 11:17:39;;;;;;;;;;;;;;;19.78;43.17;99213.63;1628852;85;20230;-66
2021/04/01 11:20:07;;;;;;;;;;;;;;;19.68;44.74;99220.14;1643727;85;21319;-64
2021/04/01 11:22:35;;;;;;;;;;;;;;;19.65;44.25;99218.23;1670233;85;20333;-66
2021/04/01 11:25:12;;;;;;;;;;;;;;;19.68;43.70;99205.63;1667857;86;20568;-65
2021/04/01 11:27:54;;;;;;;;;;;;;;;19.66;44.03;99208.87;1667262;86;20382;-65
2021/04/01 11:30:22;;;;;;;;;;;;;;;19.60;44.14;99198.81;1667426;86;20282;-64
2021/04/01 11:32:53;;;;;;;;;;;;;;;19.46;44.11;99205.69;1625746;87;21535;-64
2021/04/01 11:35:22;;;;;;;;;;;;;;;19.36;44.09;99194.23;1643779;86;20260;-65
2021/04/01 11:37:54;;;;;;;;;;;;;;;19.17;43.68;99189.62;1655927;85;20293;-65
2021/04/01 11:40:20;;;;;;;;;;;;;;;18.96;44.24;99188.72;1658007;86;21090;-64
2021/04/01 11:42:55;;;;;;;;;;;;;;;18.83;44.92;99182.27;1658313;86;20329;-64
2021/04/01 11:45:36;;;;;;;;;;;;;;;18.85;45.02;99182.98;1658008;86;21377;-66
2021/04/01 11:48:04;;;;;;;;;;;;;;;18.91;44.71;99175.43;1657964;86;20290;-64
2021/04/01 11:50:32;;;;;;;;;;;;;;;18.93;44.65;99176.15;1658169;86;20606;-64
2021/04/01 11:53:00;;;;;;;;;;;;;;;18.95;44.80;99172.08;1657759;86;20287;-63
2021/04/01 11:55:29;;;;;;;;;;;;;;;19.01;44.61;99170.72;1682274;85;20250;-64
2021/04/01 11:57:57;;;;;;;;;;;;;;;19.07;44.37;99166.28;1658965;85;21218;-65
2021/04/01 12:03:08;;;;;;;;;;;;;;;19.23;44.27;99159.62;1657160;86;20303;-64
2021/04/01 12:05:42;;;;;;;;;;;;;;;19.38;44.62;99152.28;1652059;86;20308;-64
2021/04/01 12:08:05;;;;;;;;;;;;;;;19.55;43.66;99146.47;1678235;85;20281;-65
2021/04/01 12:10:35;;;;;;;;;;;;;;;19.72;43.87;99142.89;1679632;85;21460;-64
2021/04/01 12:13:03;;;;;;;;;;;;;;;19.82;43.31;99139.81;1657990;85;20304;-64
2021/04/01 12:15:33;;;;;;;;;;;;;;;19.85;42.68;99137.75;1679073;85;20190;-66
2021/04/01 12:18:03;;;;;;;;;;;;;;;19.70;42.85;99139.06;1682842;83;20289;-63
2021/04/01 12:20:31;;;;;;;;;;;;;;;19.49;43.20;99126.31;1705921;82;20280;-63
2021/04/01 12:23:12;;;;;;;;;;;;;;;19.28;43.41;99119.22;1713650;83;22088;-65
2021/04/01 12:25:41;;;;;;;;;;;;;;;19.15;43.97;99125.64;1695974;83;20825;-64
2021/04/01 12:28:12;;;;;;;;;;;;;;;19.13;44.27;99124.93;1683635;84;20323;-63
2021/04/01 12:30:40;;;;;;;;;;;;;;;19.24;44.02;99120.91;1682651;84;20330;-65
2021/04/01 12:33:11;;;;;;;;;;;;;;;19.42;43.70;99112.80;1683494;85;20284;-62
2021/04/01 12:36:09;;;;;;;;;;;;;;;19.60;42.97;99113.08;1683971;84;21464;-64
2021/04/01 12:38:38;;;;;;;;;;;;;;;19.75;42.16;99105.22;1683552;83;20288;-63
2021/04/01 12:41:09;;;;;;;;;;;;;;;19.71;41.75;99106.91;1699856;84;20278;-62
2021/04/01 12:43:40;;;;;;;;;;;;;;;19.50;41.86;99095.89;1699326;83;20562;-64
2021/04/01 12:46:09;;;;;;;;;;;;;;;19.35;42.20;99098.47;1699626;84;20495;-63
2021/04/01 12:48:44;;;;;;;;;;;;;;;19.19;42.91;99095.41;1699798;84;22255;-65
2021/04/01 12:51:13;;;;;;;;;;;;;;;19.13;43.45;99093.30;1699499;83;20279;-68
2021/04/01 12:53:40;;;;;;;;;;;;;;;19.08;43.36;99089.72;1698999;84;20303;-64
2021/04/01 12:56:22;;;;;;;;;;;;;;;19.01;43.39;99083.27;1699309;84;20279;-64
2021/04/01 12:59:01;;;;;;;;;;;;;;;18.88;43.55;99080.80;1699710;83;20270;-63
2021/04/01 13:03:55;;;;;;;;;;;;;;;18.70;43.77;99073.56;1699154;83;20276;-65
2021/04/01 13:11:50;;;;;;;;;;;;;;;18.58;44.45;99060.38;1700907;83;20302;-62
2021/04/01 13:14:18;;;;;;;;;;;;;;;18.66;44.27;99051.90;1694133;84;21672;-63
2021/04/01 13:16:47;;;;;;;;;;;;;;;18.66;44.02;99052.38;1700730;82;20319;-63
2021/04/01 13:19:15;;;;;;;;;;;;;;;18.66;44.28;99056.33;1704436;84;20286;-67
2021/04/01 13:26:51;;;;;;;;;;;;;;;18.55;44.30;99034.80;1704718;83;22192;-67
2021/04/01 13:29:22;;;;;;;;;;;;;;;18.60;44.71;99027.36;1704333;83;21038;-68
2021/04/01 13:31:56;;;;;;;;;;;;;;;18.65;44.12;99027.00;1704362;83;20302;-64
2021/04/01 13:34:25;;;;;;;;;;;;;;;18.68;43.74;99022.80;1704650;82;20279;-64
2021/04/01 13:37:01;;;;;;;;;;;;;;;18.67;43.81;99020.64;1706845;83;20633;-65
2021/04/01 13:39:23;;;;;;;;;;;;;;;18.66;43.69;99011.06;1716737;82;21465;-64
2021/04/01 13:44:25;;;;;;;;;;;;;;;18.63;43.50;99008.68;1719255;83;20282;-64
2021/04/01 13:46:51;;;;;;;;;;;;;;;18.51;43.23;99005.23;1719335;82;20495;-64
2021/04/01 13:49:27;;;;;;;;;;;;;;;18.43;43.14;99002.37;1720799;83;20229;-63
2021/04/01 13:52:05;;;;;;;;;;;;;;;18.39;42.93;98998.31;1722612;83;21362;-64
2021/04/01 13:54:35;;;;;;;;;;;;;;;18.36;43.02;98996.43;1720438;82;20496;-64
2021/04/01 13:57:15;;;;;;;;;;;;;;;18.36;43.03;98991.16;1721358;82;20216;-63
2021/04/01 13:59:43;;;;;;;;;;;;;;;18.36;43.00;98992.00;1721564;83;20226;-65
2021/04/01 14:10:11;;;;;;;;;;;;;;;18.38;42.83;98978.72;1655148;83;20554;-62
2021/04/01 14:12:39;;;;;;;;;;;;;;;18.39;42.48;98974.61;1722836;83;20726;-61
2021/04/01 14:15:08;;;;;;;;;;;;;;;18.41;42.35;98960.01;1722708;82;20247;-63
2021/04/01 14:17:36;;;;;;;;;;;;;;;18.39;42.45;98966.71;1722738;83;21371;-62
2021/04/01 14:20:09;;;;;;;;;;;;;;;18.34;42.85;98969.39;1676532;85;20229;-62
2021/04/01 14:22:41;;;;;;;;;;;;;;;18.28;43.12;98964.61;1676707;85;20536;-63
2021/04/01 14:25:25;;;;;;;;;;;;;;;18.20;43.19;98963.42;1676628;84;20497;-62
2021/04/01 14:27:48;;;;;;;;;;;;;;;18.10;43.94;98962.98;1676587;85;20233;-63
2021/04/01 14:30:17;;;;;;;;;;;;;;;18.04;43.72;98963.47;1676617;85;22881;-63
2021/04/01 14:32:45;;;;;;;;;;;;;;;17.98;43.99;98961.34;1676518;84;20229;-63
2021/04/01 14:35:13;;;;;;;;;;;;;;;17.95;43.80;98953.22;1676571;85;20237;-62
2021/04/01 14:37:41;;;;;;;;;;;;;;;17.93;43.99;98955.13;1676344;85;20237;-63
2021/04/01 14:40:10;;;;;;;;;;;;;;;17.92;43.95;98950.83;1676549;84;20226;-63
2021/04/01 14:42:44;;;;;;;;;;;;;;;17.88;43.75;98950.70;1722826;83;22377;-62
2021/04/01 14:45:07;;;;;;;;;;;;;;;17.82;43.69;98944.60;1675870;85;20233;-63
2021/04/01 14:47:35;;;;;;;;;;;;;;;17.77;44.14;98949.42;1676578;85;20249;-63
2021/04/01 14:50:07;;;;;;;;;;;;;;;17.73;44.16;98942.23;1676590;85;20229;-62
2021/04/01 14:52:33;;;;;;;;;;;;;;;17.72;44.13;98942.36;1676599;84;20246;-62
2021/04/01 14:55:02;;;;;;;;;;;;;;;17.70;44.10;98943.80;1676575;84;21205;-63
2021/04/01 14:57:30;;;;;;;;;;;;;;;17.70;44.02;98940.33;1676536;85;20293;-63
2021/04/01 14:59:57;;;;;;;;;;;;;;;17.71;44.21;98938.89;1676563;85;20249;-62
2021/04/01 15:02:25;;;;;;;;;;;;;;;17.75;44.14;98937.70;1676587;84;20496;-63
2021/04/01 15:04:53;;;;;;;;;;;;;;;17.82;44.01;98934.08;1676536;85;20258;-63
2021/04/01 15:07:23;;;;;;;;;;;;;;;17.86;43.95;98935.03;1676534;85;21201;-62
2021/04/01 15:09:51;;;;;;;;;;;;;;;17.88;43.84;98937.55;1676553;85;20233;-62
2021/04/01 15:12:18;;;;;;;;;;;;;;;17.82;43.66;98934.92;1722695;83;20227;-62
2021/04/01 15:14:45;;;;;;;;;;;;;;;17.77;44.15;98933.63;1676543;85;20225;-63
2021/04/01 15:17:14;;;;;;;;;;;;;;;17.69;44.07;98929.45;1676582;85;20229;-63
2021/04/01 15:19:44;;;;;;;;;;;;;;;17.58;44.35;98931.59;1676560;84;20221;-62
2021/04/01 15:22:11;;;;;;;;;;;;;;;17.49;44.67;98921.30;1676500;85;20241;-64
2021/04/01 15:24:38;;;;;;;;;;;;;;;17.42;44.93;98917.47;1722684;82;20227;-61
2021/04/01 15:27:07;;;;;;;;;;;;;;;17.33;45.27;98919.52;1676549;85;20241;-62
2021/04/01 15:29:35;;;;;;;;;;;;;;;17.27;45.39;98917.84;1722703;83;20223;-63
2021/04/01 15:32:03;;;;;;;;;;;;;;;17.18;45.37;98912.83;1692323;85;21127;-63
2021/04/01 15:34:30;;;;;;;;;;;;;;;17.09;45.39;98914.84;1696981;84;20250;-63
2021/04/01 15:36:59;;;;;;;;;;;;;;;16.99;45.88;98912.55;1722685;83;20224;-64
2021/04/01 15:39:26;;;;;;;;;;;;;;;16.91;46.43;98909.68;1703162;83;20231;-63
2021/04/01 15:41:54;;;;;;;;;;;;;;;16.82;46.34;98906.79;1702624;84;20224;-63
2021/04/01 15:44:21;;;;;;;;;;;;;;;16.75;46.40;98912.64;1702564;84;21151;-63
2021/04/01 15:46:49;;;;;;;;;;;;;;;16.68;46.66;98902.23;1702445;84;20228;-64
2021/04/01 15:49:16;;;;;;;;;;;;;;;16.59;46.84;98901.56;1702575;84;20224;-62
2021/04/01 15:51:43;;;;;;;;;;;;;;;16.51;47.37;98897.74;1702614;83;20375;-63
2021/04/01 15:54:10;;;;;;;;;;;;;;;16.42;47.34;98890.54;1647140;87;20580;-62
2021/04/01 15:56:38;;;;;;;;;;;;;;;16.33;47.55;98893.86;1653677;87;21263;-63
2021/04/01 15:59:05;;;;;;;;;;;;;;;16.25;47.56;98897.52;1653546;87;20228;-63
2021/04/01 16:01:32;;;;;;;;;;;;;;;16.15;47.64;98889.50;1641140;87;20237;-63
2021/04/01 16:03:59;;;;;;;;;;;;;;;16.05;48.02;98887.64;1654582;86;20266;-63
2021/04/01 16:06:26;;;;;;;;;;;;;;;15.93;48.19;98880.69;1649295;86;20224;-63
2021/04/01 16:08:55;;;;;;;;;;;;;;;15.83;48.39;98884.43;1649182;86;21206;-63
2021/04/01 16:11:22;;;;;;;;;;;;;;;15.72;48.57;98885.69;1649107;87;20240;-63
2021/04/01 16:13:49;;;;;;;;;;;;;;;15.61;49.08;98886.44;1649120;87;20240;-63
2021/04/01 16:16:19;;;;;;;;;;;;;;;15.51;49.23;98886.71;1649217;86;20244;-63
2021/04/01 16:18:48;;;;;;;;;;;;;;;15.39;49.43;98883.16;1649010;86;20233;-63
2021/04/01 16:21:16;;;;;;;;;;;;;;;15.27;49.76;98877.95;1702623;84;21211;-63
2021/04/01 16:23:43;;;;;;;;;;;;;;;15.16;50.08;98885.26;1647003;86;20253;-63
2021/04/01 16:26:11;;;;;;;;;;;;;;;15.03;50.65;98885.25;1702377;83;20228;-64
2021/04/01 16:28:38;;;;;;;;;;;;;;;14.91;50.90;98883.48;1702564;84;20256;-63
2021/04/01 16:31:05;;;;;;;;;;;;;;;14.77;51.22;98880.51;1702613;84;20507;-63
2021/04/01 16:33:35;;;;;;;;;;;;;;;14.62;51.57;98878.90;1702598;84;21327;-62
2021/04/01 16:36:04;;;;;;;;;;;;;;;14.51;51.97;98880.11;1702654;84;20527;-62
2021/04/01 16:38:34;;;;;;;;;;;;;;;14.39;52.30;98881.70;1704520;84;20219;-63
2021/04/01 16:41:02;;;;;;;;;;;;;;;14.26;52.64;98883.47;1707418;84;20224;-64
2021/04/01 16:43:30;;;;;;;;;;;;;;;14.14;53.14;98888.20;1707357;84;20300;-63
2021/04/01 16:45:59;;;;;;;;;;;;;;;14.02;53.39;98881.14;1707344;84;21197;-64
2021/04/01 16:48:30;;;;;;;;;;;;;;;13.90;53.74;98878.86;1707299;84;20220;-63
2021/04/01 16:50:58;;;;;;;;;;;;;;;13.79;54.13;98872.99;1707474;84;20492;-63
2021/04/01 16:53:34;;;;;;;;;;;;;;;13.66;54.74;98881.26;1707325;83;20243;-64
2021/04/01 16:56:04;;;;;;;;;;;;;;;13.55;55.07;98875.05;1704468;84;20231;-63
2021/04/01 16:58:32;;;;;;;;;;;;;;;13.43;55.50;98876.63;1707356;84;21203;-64
2021/04/01 17:00:59;;;;;;;;;;;;;;;13.32;55.81;98879.09;1707311;84;20236;-63
2021/04/01 17:03:35;;;;;;;;;;;;;;;13.22;56.07;98876.19;1707337;84;20224;-64
2021/04/01 17:06:00;;;;;;;;;;;;;;;13.11;56.46;98876.83;1706714;84;20224;-64
2021/04/01 17:08:28;;;;;;;;;;;;;;;13.01;57.00;98873.09;1706506;84;20274;-63
2021/04/01 17:10:57;;;;;;;;;;;;;;;12.92;57.14;98874.13;1654147;85;21368;-63
2021/04/01 17:13:24;;;;;;;;;;;;;;;12.83;57.41;98868.98;1653728;86;20277;-64
2021/04/01 17:15:53;;;;;;;;;;;;;;;12.75;57.68;98872.06;1653998;86;20527;-64
2021/04/01 17:18:30;;;;;;;;;;;;;;;12.67;57.94;98874.75;1654279;85;20266;-63
2021/04/01 17:20:57;;;;;;;;;;;;;;;12.60;58.24;98872.95;1654304;86;20235;-63
2021/04/01 17:23:25;;;;;;;;;;;;;;;12.51;58.46;98872.67;1654304;85;21208;-63
2021/04/01 17:25:53;;;;;;;;;;;;;;;12.42;58.99;98865.75;1654618;85;20508;-63
2021/04/01 17:28:20;;;;;;;;;;;;;;;12.35;59.14;98867.52;1707338;83;20324;-64
2021/04/01 17:30:48;;;;;;;;;;;;;;;12.26;59.33;98868.88;1654828;86;20233;-64
2021/04/01 17:33:15;;;;;;;;;;;;;;;12.19;59.61;98874.06;1654819;86;20230;-63
2021/04/01 17:35:43;;;;;;;;;;;;;;;12.13;59.80;98871.83;1654929;85;22132;-63
2021/04/01 17:38:10;;;;;;;;;;;;;;;12.06;60.05;98871.33;1657846;85;20257;-63
2021/04/01 17:40:38;;;;;;;;;;;;;;;12.01;60.19;98872.50;1722862;83;20215;-63
2021/04/01 17:43:06;;;;;;;;;;;;;;;11.97;60.41;98877.54;1676729;85;20245;-62
2021/04/01 17:45:35;;;;;;;;;;;;;;;11.93;60.41;98871.66;1676589;84;20250;-63
2021/04/01 17:48:02;;;;;;;;;;;;;;;11.89;60.53;98869.30;1676676;85;21279;-62
2021/04/01 17:50:30;;;;;;;;;;;;;;;11.86;60.61;98866.40;1676587;85;20280;-63
2021/04/01 17:52:58;;;;;;;;;;;;;;;11.83;60.65;98869.17;1722823;83;20507;-63
2021/04/01 17:55:33;;;;;;;;;;;;;;;11.82;60.61;98862.74;1676669;85;20242;-63
2021/04/01 17:57:57;;;;;;;;;;;;;;;11.79;60.80;98866.84;1676753;85;20253;-64
2021/04/01 18:00:31;;;;;;;;;;;;;;;11.76;60.77;98862.64;1676679;85;21203;-63
2021/04/01 18:03:04;;;;;;;;;;;;;;;11.73;60.70;98862.78;1676609;85;20253;-62
2021/04/01 18:22:14;;;;;;;;;;;;;;;11.44;61.38;98868.73;1722826;83;20223;-63
2021/04/01 18:24:34;;;;;;;;;;;;;;;11.38;61.37;98864.27;1675514;84;20241;-63
2021/04/01 18:29:58;;;;;;;;;;;;;;;11.28;61.68;98866.97;1676597;85;20217;-64
2021/04/01 18:32:18;;;;;;;;;;;;;;;11.23;61.86;98861.62;1675429;85;20257;-63
2021/04/01 18:35:03;;;;;;;;;;;;;;;11.18;61.94;98863.20;1722782;83;20243;-62
2021/04/01 18:37:32;;;;;;;;;;;;;;;11.12;62.06;98863.52;1674460;85;20551;-63
2021/04/01 18:42:34;;;;;;;;;;;;;;;11.02;62.29;98861.84;1644465;84;20241;-62
2021/04/01 18:45:02;;;;;;;;;;;;;;;10.99;62.39;98852.09;1676576;85;20269;-63
2021/04/01 18:50:02;;;;;;;;;;;;;;;10.91;62.58;98843.37;1685436;85;20226;-63
2021/04/01 18:52:32;;;;;;;;;;;;;;;10.88;62.63;98842.69;1685466;84;21213;-63
2021/04/01 18:55:11;;;;;;;;;;;;;;;10.86;62.67;98839.32;1685410;84;20765;-64
2021/04/01 18:57:34;;;;;;;;;;;;;;;10.84;62.76;98842.45;1683315;85;20242;-63
2021/04/01 19:00:07;;;;;;;;;;;;;;;10.81;62.85;98838.25;1685339;84;20245;-63
2021/04/01 19:02:28;;;;;;;;;;;;;;;10.78;62.83;98840.20;1693551;84;20220;-63
2021/04/01 19:05:10;;;;;;;;;;;;;;;10.75;62.90;98837.30;1685169;85;21227;-63
2021/04/01 19:07:37;;;;;;;;;;;;;;;10.72;62.98;98832.25;1685336;85;20498;-63
2021/04/01 19:24:12;;;;;;;;;;;;;;;10.46;63.64;98823.64;1818175;79;20827;-64
2021/04/01 19:26:39;;;;;;;;;;;;;;;10.43;63.77;98821.20;1818092;77;22353;-64
2021/04/01 19:29:07;;;;;;;;;;;;;;;10.41;63.88;98819.97;1818151;79;20216;-63
2021/04/01 19:31:39;;;;;;;;;;;;;;;10.39;64.09;98815.80;1818208;79;20224;-64
2021/04/01 19:34:07;;;;;;;;;;;;;;;10.38;64.14;98814.11;1818107;78;20237;-63
2021/04/01 19:36:35;;;;;;;;;;;;;;;10.34;64.20;98807.77;1818111;79;20152;-63
2021/04/01 19:39:08;;;;;;;;;;;;;;;10.32;64.27;98800.50;1818154;79;21198;-63
2021/04/01 19:41:37;;;;;;;;;;;;;;;10.30;64.48;98805.39;1818050;79;20149;-64
2021/04/01 19:44:04;;;;;;;;;;;;;;;10.26;64.57;98802.11;1818211;78;20499;-63
2021/04/01 19:46:34;;;;;;;;;;;;;;;10.23;64.67;98802.25;1798820;78;20497;-63
2021/04/01 19:49:04;;;;;;;;;;;;;;;10.21;64.92;98801.95;1785960;79;20265;-62
2021/04/01 19:51:32;;;;;;;;;;;;;;;10.18;64.99;98800.34;1785949;79;21197;-63
2021/04/01 19:54:00;;;;;;;;;;;;;;;10.17;65.04;98797.36;1785968;79;20227;-62
2021/04/01 19:56:28;;;;;;;;;;;;;;;10.13;65.12;98790.63;1786017;80;20498;-63
2021/04/01 19:58:56;;;;;;;;;;;;;;;10.11;65.22;98789.86;1785875;79;20218;-63
2021/04/01 20:01:23;;;;;;;;;;;;;;;10.09;65.31;98789.55;1785958;79;20222;-63
2021/04/01 20:03:51;;;;;;;;;;;;;;;10.07;65.37;98790.08;1785917;80;21201;-64
2021/04/01 20:06:19;;;;;;;;;;;;;;;10.03;65.39;98782.44;1785883;80;20219;-65
2021/04/01 20:08:46;;;;;;;;;;;;;;;9.98;65.65;98779.25;1785929;80;20255;-63
2021/04/01 20:11:14;;;;;;;;;;;;;;;9.92;65.74;98780.84;1785890;80;20239;-63
2021/04/01 20:13:43;;;;;;;;;;;;;;;9.89;66.05;98776.26;1785922;80;20239;-64
2021/04/01 20:16:10;;;;;;;;;;;;;;;9.85;65.97;98773.42;1785936;79;21213;-63
2021/04/01 20:18:39;;;;;;;;;;;;;;;9.82;66.05;98769.67;1785853;79;20159;-62
2021/04/01 20:21:06;;;;;;;;;;;;;;;9.81;66.18;98768.83;1755639;80;20222;-63
2021/04/01 20:23:34;;;;;;;;;;;;;;;9.79;66.29;98768.55;1785884;79;20210;-64
2021/04/01 20:26:01;;;;;;;;;;;;;;;9.77;66.34;98760.00;1785896;79;20214;-63
2021/04/01 20:28:30;;;;;;;;;;;;;;;9.76;66.41;98764.35;1785905;79;22075;-62
2021/04/01 20:30:58;;;;;;;;;;;;;;;9.76;66.36;98757.02;1785670;80;20234;-64
2021/04/01 20:33:25;;;;;;;;;;;;;;;9.75;66.38;98756.17;1785345;79;20230;-64
2021/04/01 20:35:54;;;;;;;;;;;;;;;9.73;66.35;98755.41;1785407;79;20241;-64
2021/04/01 20:38:22;;;;;;;;;;;;;;;9.71;66.36;98746.84;1785329;79;20293;-62
2021/04/01 20:40:49;;;;;;;;;;;;;;;9.69;66.40;98756.47;1785297;79;21192;-64